sensor_id;sensor_type;location;lat;lon;timestamp;P1;durP1;ratioP1;P2;durP2;ratioP2
5125;SDS011;63008;53.112;8.896;2022-10-31T00:00:30;48.10;;;29.80;;
5125;SDS011;63008;53.112;8.896;2022-10-31T00:02:32;58.57;;;32.83;;
5125;SDS011;63008;53.112;8.896;2022-10-31T00:04:33;58.53;;;32.43;;
5125;SDS011;63008;53.112;8.896;2022-10-31T00:06:34;62.63;;;34.90;;
5125;SDS011;63008;53.112;8.896;2022-10-31T00:08:35;65.53;;;36.70;;
5125;SDS011;63008;53.112;8.896;2022-10-31T00:10:39;63.60;;;34.97;;
5125;SDS011;63008;53.112;8.896;2022-10-31T00:12:41;67.23;;;35.30;;
5125;SDS011;63008;53.112;8.896;2022-10-31T00:14:42;63.23;;;35.13;;
5125;SDS011;63008;53.112;8.896;2022-10-31T00:16:43;66.83;;;36.17;;
5125;SDS011;63008;53.112;8.896;2022-10-31T00:18:47;59.73;;;35.80;;
5125;SDS011;63008;53.112;8.896;2022-10-31T00:20:57;62.63;;;35.77;;
5125;SDS011;63008;53.112;8.896;2022-10-31T00:23:00;67.30;;;36.73;;
5125;SDS011;63008;53.112;8.896;2022-10-31T00:25:02;61.47;;;37.50;;
5125;SDS011;63008;53.112;8.896;2022-10-31T00:27:04;69.07;;;36.97;;
5125;SDS011;63008;53.112;8.896;2022-10-31T00:29:04;71.07;;;36.67;;
5125;SDS011;63008;53.112;8.896;2022-10-31T00:31:07;65.03;;;36.60;;
5125;SDS011;63008;53.112;8.896;2022-10-31T00:33:09;58.47;;;36.90;;
5125;SDS011;63008;53.112;8.896;2022-10-31T00:35:10;60.70;;;36.33;;
5125;SDS011;63008;53.112;8.896;2022-10-31T00:37:11;65.33;;;37.60;;
5125;SDS011;63008;53.112;8.896;2022-10-31T00:39:12;64.13;;;36.47;;
5125;SDS011;63008;53.112;8.896;2022-10-31T00:41:14;61.10;;;36.97;;
5125;SDS011;63008;53.112;8.896;2022-10-31T00:43:17;65.50;;;38.63;;
5125;SDS011;63008;53.112;8.896;2022-10-31T00:45:17;63.77;;;36.97;;
5125;SDS011;63008;53.112;8.896;2022-10-31T00:47:18;69.23;;;37.70;;
5125;SDS011;63008;53.112;8.896;2022-10-31T00:49:19;81.87;;;39.87;;
5125;SDS011;63008;53.112;8.896;2022-10-31T00:51:20;83.63;;;39.33;;
5125;SDS011;63008;53.112;8.896;2022-10-31T00:53:21;63.37;;;38.57;;
5125;SDS011;63008;53.112;8.896;2022-10-31T00:55:22;73.70;;;39.60;;
5125;SDS011;63008;53.112;8.896;2022-10-31T00:57:23;68.30;;;35.80;;
5125;SDS011;63008;53.112;8.896;2022-10-31T00:59:24;71.03;;;39.00;;
5125;SDS011;63008;53.112;8.896;2022-10-31T01:01:25;69.80;;;38.83;;
5125;SDS011;63008;53.112;8.896;2022-10-31T01:03:27;71.20;;;37.10;;
5125;SDS011;63008;53.112;8.896;2022-10-31T01:05:31;60.73;;;36.90;;
5125;SDS011;63008;53.112;8.896;2022-10-31T01:07:35;72.17;;;36.53;;
5125;SDS011;63008;53.112;8.896;2022-10-31T01:09:36;66.63;;;38.80;;
5125;SDS011;63008;53.112;8.896;2022-10-31T01:11:37;75.30;;;39.70;;
5125;SDS011;63008;53.112;8.896;2022-10-31T01:13:38;64.67;;;38.53;;
5125;SDS011;63008;53.112;8.896;2022-10-31T01:15:40;72.90;;;39.60;;
5125;SDS011;63008;53.112;8.896;2022-10-31T01:17:41;74.20;;;37.70;;
5125;SDS011;63008;53.112;8.896;2022-10-31T01:19:42;65.60;;;36.93;;
5125;SDS011;63008;53.112;8.896;2022-10-31T01:21:43;67.10;;;37.50;;
5125;SDS011;63008;53.112;8.896;2022-10-31T01:23:44;62.13;;;35.40;;
5125;SDS011;63008;53.112;8.896;2022-10-31T01:25:45;60.53;;;35.90;;
5125;SDS011;63008;53.112;8.896;2022-10-31T01:27:49;61.30;;;33.37;;
5125;SDS011;63008;53.112;8.896;2022-10-31T01:29:50;60.70;;;35.00;;
5125;SDS011;63008;53.112;8.896;2022-10-31T01:31:51;64.57;;;34.53;;
5125;SDS011;63008;53.112;8.896;2022-10-31T01:33:52;50.80;;;34.33;;
5125;SDS011;63008;53.112;8.896;2022-10-31T01:35:53;64.57;;;36.10;;
5125;SDS011;63008;53.112;8.896;2022-10-31T01:37:54;60.77;;;36.20;;
5125;SDS011;63008;53.112;8.896;2022-10-31T01:39:55;58.93;;;35.67;;
5125;SDS011;63008;53.112;8.896;2022-10-31T01:41:56;65.50;;;36.67;;
5125;SDS011;63008;53.112;8.896;2022-10-31T01:44:02;66.20;;;36.37;;
5125;SDS011;63008;53.112;8.896;2022-10-31T01:46:24;65.00;;;36.00;;
5125;SDS011;63008;53.112;8.896;2022-10-31T01:48:28;66.00;;;37.20;;
5125;SDS011;63008;53.112;8.896;2022-10-31T01:50:32;61.90;;;36.30;;
5125;SDS011;63008;53.112;8.896;2022-10-31T01:52:40;54.87;;;34.10;;
5125;SDS011;63008;53.112;8.896;2022-10-31T01:54:48;64.23;;;35.70;;
5125;SDS011;63008;53.112;8.896;2022-10-31T01:56:55;80.47;;;39.40;;
5125;SDS011;63008;53.112;8.896;2022-10-31T01:58:57;62.00;;;37.60;;
5125;SDS011;63008;53.112;8.896;2022-10-31T02:01:02;70.70;;;36.63;;
5125;SDS011;63008;53.112;8.896;2022-10-31T02:03:04;64.70;;;37.60;;
5125;SDS011;63008;53.112;8.896;2022-10-31T02:05:06;67.60;;;36.97;;
5125;SDS011;63008;53.112;8.896;2022-10-31T02:07:10;61.50;;;35.10;;
5125;SDS011;63008;53.112;8.896;2022-10-31T02:09:15;62.67;;;36.53;;
5125;SDS011;63008;53.112;8.896;2022-10-31T02:11:17;61.40;;;35.20;;
5125;SDS011;63008;53.112;8.896;2022-10-31T02:13:18;61.73;;;35.77;;
5125;SDS011;63008;53.112;8.896;2022-10-31T02:15:20;62.70;;;34.60;;
5125;SDS011;63008;53.112;8.896;2022-10-31T02:17:21;68.77;;;34.00;;
5125;SDS011;63008;53.112;8.896;2022-10-31T02:19:37;63.67;;;34.53;;
5125;SDS011;63008;53.112;8.896;2022-10-31T02:21:49;62.60;;;35.70;;
5125;SDS011;63008;53.112;8.896;2022-10-31T02:28:53;63.83;;;35.20;;
5125;SDS011;63008;53.112;8.896;2022-10-31T02:31:18;52.03;;;33.50;;
5125;SDS011;63008;53.112;8.896;2022-10-31T02:33:38;57.67;;;35.60;;
5125;SDS011;63008;53.112;8.896;2022-10-31T02:35:50;66.00;;;34.77;;
5125;SDS011;63008;53.112;8.896;2022-10-31T02:40:05;63.53;;;33.50;;
5125;SDS011;63008;53.112;8.896;2022-10-31T02:42:16;53.60;;;33.67;;
5125;SDS011;63008;53.112;8.896;2022-10-31T02:46:53;63.70;;;34.87;;
5125;SDS011;63008;53.112;8.896;2022-10-31T02:49:01;62.60;;;35.50;;
5125;SDS011;63008;53.112;8.896;2022-10-31T02:51:08;61.87;;;35.10;;
5125;SDS011;63008;53.112;8.896;2022-10-31T02:53:13;52.77;;;34.40;;
5125;SDS011;63008;53.112;8.896;2022-10-31T02:57:26;56.60;;;33.00;;
5125;SDS011;63008;53.112;8.896;2022-10-31T02:59:31;49.87;;;30.23;;
5125;SDS011;63008;53.112;8.896;2022-10-31T03:04:16;59.40;;;33.93;;
5125;SDS011;63008;53.112;8.896;2022-10-31T03:09:19;67.90;;;34.80;;
5125;SDS011;63008;53.112;8.896;2022-10-31T03:11:32;59.73;;;31.77;;
5125;SDS011;63008;53.112;8.896;2022-10-31T03:13:48;50.27;;;32.87;;
5125;SDS011;63008;53.112;8.896;2022-10-31T03:16:09;58.47;;;32.70;;
5125;SDS011;63008;53.112;8.896;2022-10-31T03:18:29;56.73;;;32.93;;
5125;SDS011;63008;53.112;8.896;2022-10-31T03:20:41;52.00;;;28.90;;
5125;SDS011;63008;53.112;8.896;2022-10-31T03:22:48;46.10;;;29.27;;
5125;SDS011;63008;53.112;8.896;2022-10-31T03:24:49;51.70;;;30.07;;
5125;SDS011;63008;53.112;8.896;2022-10-31T03:26:53;55.77;;;31.63;;
5125;SDS011;63008;53.112;8.896;2022-10-31T03:29:00;44.70;;;28.73;;
5125;SDS011;63008;53.112;8.896;2022-10-31T03:31:03;50.20;;;31.47;;
5125;SDS011;63008;53.112;8.896;2022-10-31T03:33:06;51.27;;;29.63;;
5125;SDS011;63008;53.112;8.896;2022-10-31T03:35:10;50.73;;;30.30;;
5125;SDS011;63008;53.112;8.896;2022-10-31T03:37:18;62.73;;;29.07;;
5125;SDS011;63008;53.112;8.896;2022-10-31T03:39:20;57.70;;;34.03;;
5125;SDS011;63008;53.112;8.896;2022-10-31T03:41:23;54.50;;;31.00;;
5125;SDS011;63008;53.112;8.896;2022-10-31T03:43:30;46.63;;;30.10;;
5125;SDS011;63008;53.112;8.896;2022-10-31T03:45:39;52.10;;;29.90;;
5125;SDS011;63008;53.112;8.896;2022-10-31T03:47:44;62.10;;;36.27;;
5125;SDS011;63008;53.112;8.896;2022-10-31T03:49:45;59.87;;;34.87;;
5125;SDS011;63008;53.112;8.896;2022-10-31T03:51:53;61.27;;;35.10;;
5125;SDS011;63008;53.112;8.896;2022-10-31T03:54:02;64.20;;;35.13;;
5125;SDS011;63008;53.112;8.896;2022-10-31T03:58:37;71.40;;;37.57;;
5125;SDS011;63008;53.112;8.896;2022-10-31T04:00:43;62.53;;;36.80;;
5125;SDS011;63008;53.112;8.896;2022-10-31T04:02:48;75.43;;;41.10;;
5125;SDS011;63008;53.112;8.896;2022-10-31T04:04:54;90.93;;;43.53;;
5125;SDS011;63008;53.112;8.896;2022-10-31T04:06:56;75.10;;;37.23;;
5125;SDS011;63008;53.112;8.896;2022-10-31T04:09:01;62.00;;;36.20;;
5125;SDS011;63008;53.112;8.896;2022-10-31T04:11:05;65.30;;;37.00;;
5125;SDS011;63008;53.112;8.896;2022-10-31T04:13:10;67.43;;;35.10;;
5125;SDS011;63008;53.112;8.896;2022-10-31T04:15:14;53.60;;;33.93;;
5125;SDS011;63008;53.112;8.896;2022-10-31T04:17:17;56.53;;;33.33;;
5125;SDS011;63008;53.112;8.896;2022-10-31T04:19:21;64.53;;;35.30;;
5125;SDS011;63008;53.112;8.896;2022-10-31T04:21:29;53.97;;;33.47;;
5125;SDS011;63008;53.112;8.896;2022-10-31T04:23:30;53.33;;;34.70;;
5125;SDS011;63008;53.112;8.896;2022-10-31T04:25:33;61.67;;;33.13;;
5125;SDS011;63008;53.112;8.896;2022-10-31T04:27:34;52.60;;;31.03;;
5125;SDS011;63008;53.112;8.896;2022-10-31T04:29:34;58.07;;;33.20;;
5125;SDS011;63008;53.112;8.896;2022-10-31T04:31:35;51.77;;;30.70;;
5125;SDS011;63008;53.112;8.896;2022-10-31T04:33:37;53.13;;;30.07;;
5125;SDS011;63008;53.112;8.896;2022-10-31T04:35:38;63.17;;;33.57;;
5125;SDS011;63008;53.112;8.896;2022-10-31T04:37:40;55.50;;;33.07;;
5125;SDS011;63008;53.112;8.896;2022-10-31T04:39:41;53.20;;;29.20;;
5125;SDS011;63008;53.112;8.896;2022-10-31T04:41:42;55.03;;;31.30;;
5125;SDS011;63008;53.112;8.896;2022-10-31T04:43:43;54.53;;;32.47;;
5125;SDS011;63008;53.112;8.896;2022-10-31T04:45:43;54.10;;;33.20;;
5125;SDS011;63008;53.112;8.896;2022-10-31T04:47:44;62.90;;;33.70;;
5125;SDS011;63008;53.112;8.896;2022-10-31T04:49:45;81.60;;;42.47;;
5125;SDS011;63008;53.112;8.896;2022-10-31T04:51:46;93.73;;;42.27;;
5125;SDS011;63008;53.112;8.896;2022-10-31T04:53:47;85.60;;;42.30;;
5125;SDS011;63008;53.112;8.896;2022-10-31T04:55:48;76.80;;;39.00;;
5125;SDS011;63008;53.112;8.896;2022-10-31T04:57:49;81.20;;;42.60;;
5125;SDS011;63008;53.112;8.896;2022-10-31T04:59:51;92.13;;;43.57;;
5125;SDS011;63008;53.112;8.896;2022-10-31T05:01:52;93.87;;;43.80;;
5125;SDS011;63008;53.112;8.896;2022-10-31T05:03:53;97.90;;;43.27;;
5125;SDS011;63008;53.112;8.896;2022-10-31T05:05:54;94.27;;;43.90;;
5125;SDS011;63008;53.112;8.896;2022-10-31T05:07:55;125.63;;;45.93;;
5125;SDS011;63008;53.112;8.896;2022-10-31T05:09:56;147.47;;;46.10;;
5125;SDS011;63008;53.112;8.896;2022-10-31T05:11:57;123.43;;;44.57;;
5125;SDS011;63008;53.112;8.896;2022-10-31T05:13:58;207.50;;;49.10;;
5125;SDS011;63008;53.112;8.896;2022-10-31T05:15:59;153.03;;;46.77;;
5125;SDS011;63008;53.112;8.896;2022-10-31T05:18:00;107.00;;;46.50;;
5125;SDS011;63008;53.112;8.896;2022-10-31T05:20:02;131.93;;;48.60;;
5125;SDS011;63008;53.112;8.896;2022-10-31T05:22:03;160.23;;;46.97;;
5125;SDS011;63008;53.112;8.896;2022-10-31T05:24:04;242.67;;;47.03;;
5125;SDS011;63008;53.112;8.896;2022-10-31T05:26:06;102.23;;;44.73;;
5125;SDS011;63008;53.112;8.896;2022-10-31T05:28:07;229.27;;;48.13;;
5125;SDS011;63008;53.112;8.896;2022-10-31T05:30:08;176.70;;;44.67;;
5125;SDS011;63008;53.112;8.896;2022-10-31T05:32:10;348.77;;;51.97;;
5125;SDS011;63008;53.112;8.896;2022-10-31T05:34:11;187.03;;;48.77;;
5125;SDS011;63008;53.112;8.896;2022-10-31T05:36:12;144.73;;;44.87;;
5125;SDS011;63008;53.112;8.896;2022-10-31T05:38:13;177.07;;;48.57;;
5125;SDS011;63008;53.112;8.896;2022-10-31T05:40:15;276.43;;;48.73;;
5125;SDS011;63008;53.112;8.896;2022-10-31T05:42:17;153.57;;;47.47;;
5125;SDS011;63008;53.112;8.896;2022-10-31T05:44:18;135.70;;;44.90;;
5125;SDS011;63008;53.112;8.896;2022-10-31T05:46:19;171.40;;;47.50;;
5125;SDS011;63008;53.112;8.896;2022-10-31T05:48:20;125.80;;;46.10;;
5125;SDS011;63008;53.112;8.896;2022-10-31T05:50:21;244.97;;;44.87;;
5125;SDS011;63008;53.112;8.896;2022-10-31T05:52:23;145.37;;;43.07;;
5125;SDS011;63008;53.112;8.896;2022-10-31T05:54:24;108.97;;;41.60;;
5125;SDS011;63008;53.112;8.896;2022-10-31T05:56:25;142.13;;;41.40;;
5125;SDS011;63008;53.112;8.896;2022-10-31T05:58:26;150.07;;;42.10;;
5125;SDS011;63008;53.112;8.896;2022-10-31T06:00:27;73.07;;;38.37;;
5125;SDS011;63008;53.112;8.896;2022-10-31T06:02:28;94.23;;;39.13;;
5125;SDS011;63008;53.112;8.896;2022-10-31T06:04:32;143.23;;;38.50;;
5125;SDS011;63008;53.112;8.896;2022-10-31T06:06:33;159.57;;;40.43;;
5125;SDS011;63008;53.112;8.896;2022-10-31T06:08:35;118.93;;;36.10;;
5125;SDS011;63008;53.112;8.896;2022-10-31T06:10:38;240.33;;;43.17;;
5125;SDS011;63008;53.112;8.896;2022-10-31T06:12:39;192.80;;;40.50;;
5125;SDS011;63008;53.112;8.896;2022-10-31T06:14:41;126.37;;;38.47;;
5125;SDS011;63008;53.112;8.896;2022-10-31T06:16:42;126.80;;;40.10;;
5125;SDS011;63008;53.112;8.896;2022-10-31T06:18:43;114.00;;;37.07;;
5125;SDS011;63008;53.112;8.896;2022-10-31T06:20:44;276.57;;;47.13;;
5125;SDS011;63008;53.112;8.896;2022-10-31T06:22:45;124.83;;;37.20;;
5125;SDS011;63008;53.112;8.896;2022-10-31T06:24:45;69.70;;;37.47;;
5125;SDS011;63008;53.112;8.896;2022-10-31T06:26:46;86.47;;;37.63;;
5125;SDS011;63008;53.112;8.896;2022-10-31T06:28:47;54.37;;;36.10;;
5125;SDS011;63008;53.112;8.896;2022-10-31T06:30:48;80.37;;;36.57;;
5125;SDS011;63008;53.112;8.896;2022-10-31T06:32:49;68.70;;;36.63;;
5125;SDS011;63008;53.112;8.896;2022-10-31T06:34:50;60.43;;;35.40;;
5125;SDS011;63008;53.112;8.896;2022-10-31T06:36:51;45.97;;;33.70;;
5125;SDS011;63008;53.112;8.896;2022-10-31T06:38:52;79.30;;;37.97;;
5125;SDS011;63008;53.112;8.896;2022-10-31T06:40:54;51.23;;;35.63;;
5125;SDS011;63008;53.112;8.896;2022-10-31T06:43:01;184.50;;;41.33;;
5125;SDS011;63008;53.112;8.896;2022-10-31T06:45:02;47.20;;;33.53;;
5125;SDS011;63008;53.112;8.896;2022-10-31T06:47:05;52.07;;;34.93;;
5125;SDS011;63008;53.112;8.896;2022-10-31T06:49:06;68.27;;;37.30;;
5125;SDS011;63008;53.112;8.896;2022-10-31T06:51:07;57.83;;;35.53;;
5125;SDS011;63008;53.112;8.896;2022-10-31T06:53:08;103.60;;;40.90;;
5125;SDS011;63008;53.112;8.896;2022-10-31T06:55:09;87.33;;;38.73;;
5125;SDS011;63008;53.112;8.896;2022-10-31T06:57:10;50.63;;;33.97;;
5125;SDS011;63008;53.112;8.896;2022-10-31T06:59:11;46.67;;;34.40;;
5125;SDS011;63008;53.112;8.896;2022-10-31T07:01:12;49.27;;;34.90;;
5125;SDS011;63008;53.112;8.896;2022-10-31T07:03:14;54.77;;;33.57;;
5125;SDS011;63008;53.112;8.896;2022-10-31T07:05:16;56.17;;;34.83;;
5125;SDS011;63008;53.112;8.896;2022-10-31T07:07:17;46.53;;;34.10;;
5125;SDS011;63008;53.112;8.896;2022-10-31T07:09:18;55.73;;;33.37;;
5125;SDS011;63008;53.112;8.896;2022-10-31T07:11:19;43.73;;;32.80;;
5125;SDS011;63008;53.112;8.896;2022-10-31T07:13:20;39.63;;;29.00;;
5125;SDS011;63008;53.112;8.896;2022-10-31T07:15:26;40.90;;;31.67;;
5125;SDS011;63008;53.112;8.896;2022-10-31T07:17:28;41.60;;;33.20;;
5125;SDS011;63008;53.112;8.896;2022-10-31T07:19:29;56.57;;;32.67;;
5125;SDS011;63008;53.112;8.896;2022-10-31T07:23:33;45.57;;;33.33;;
5125;SDS011;63008;53.112;8.896;2022-10-31T07:25:34;40.87;;;30.03;;
5125;SDS011;63008;53.112;8.896;2022-10-31T07:27:38;45.80;;;31.57;;
5125;SDS011;63008;53.112;8.896;2022-10-31T07:29:41;44.23;;;31.40;;
5125;SDS011;63008;53.112;8.896;2022-10-31T07:31:41;39.00;;;30.70;;
5125;SDS011;63008;53.112;8.896;2022-10-31T07:33:44;36.83;;;29.70;;
5125;SDS011;63008;53.112;8.896;2022-10-31T07:35:45;42.47;;;32.40;;
5125;SDS011;63008;53.112;8.896;2022-10-31T07:37:46;49.63;;;32.80;;
5125;SDS011;63008;53.112;8.896;2022-10-31T07:39:48;46.20;;;34.20;;
5125;SDS011;63008;53.112;8.896;2022-10-31T07:41:49;40.00;;;31.20;;
5125;SDS011;63008;53.112;8.896;2022-10-31T07:43:49;55.47;;;33.70;;
5125;SDS011;63008;53.112;8.896;2022-10-31T07:45:51;149.00;;;39.23;;
5125;SDS011;63008;53.112;8.896;2022-10-31T07:47:53;87.77;;;34.90;;
5125;SDS011;63008;53.112;8.896;2022-10-31T07:49:54;63.37;;;33.03;;
5125;SDS011;63008;53.112;8.896;2022-10-31T07:51:55;88.47;;;32.43;;
5125;SDS011;63008;53.112;8.896;2022-10-31T07:53:56;62.00;;;32.40;;
5125;SDS011;63008;53.112;8.896;2022-10-31T07:55:57;59.53;;;30.80;;
5125;SDS011;63008;53.112;8.896;2022-10-31T07:58:07;51.63;;;30.80;;
5125;SDS011;63008;53.112;8.896;2022-10-31T08:00:13;45.90;;;31.00;;
5125;SDS011;63008;53.112;8.896;2022-10-31T08:02:14;229.90;;;38.93;;
5125;SDS011;63008;53.112;8.896;2022-10-31T08:04:15;151.30;;;36.13;;
5125;SDS011;63008;53.112;8.896;2022-10-31T08:06:16;60.23;;;33.90;;
5125;SDS011;63008;53.112;8.896;2022-10-31T08:08:17;75.80;;;33.90;;
5125;SDS011;63008;53.112;8.896;2022-10-31T08:10:18;72.87;;;31.50;;
5125;SDS011;63008;53.112;8.896;2022-10-31T08:12:19;162.90;;;33.37;;
5125;SDS011;63008;53.112;8.896;2022-10-31T08:14:20;146.00;;;35.67;;
5125;SDS011;63008;53.112;8.896;2022-10-31T08:16:22;332.37;;;39.67;;
5125;SDS011;63008;53.112;8.896;2022-10-31T08:18:23;79.80;;;30.97;;
5125;SDS011;63008;53.112;8.896;2022-10-31T08:20:24;263.90;;;38.77;;
5125;SDS011;63008;53.112;8.896;2022-10-31T08:22:25;133.27;;;32.93;;
5125;SDS011;63008;53.112;8.896;2022-10-31T08:24:26;120.13;;;30.40;;
5125;SDS011;63008;53.112;8.896;2022-10-31T08:26:27;51.30;;;28.17;;
5125;SDS011;63008;53.112;8.896;2022-10-31T08:28:28;290.13;;;39.63;;
5125;SDS011;63008;53.112;8.896;2022-10-31T08:30:30;437.30;;;49.77;;
5125;SDS011;63008;53.112;8.896;2022-10-31T08:32:32;321.93;;;43.20;;
5125;SDS011;63008;53.112;8.896;2022-10-31T08:34:33;102.63;;;35.10;;
5125;SDS011;63008;53.112;8.896;2022-10-31T08:36:34;120.57;;;35.23;;
5125;SDS011;63008;53.112;8.896;2022-10-31T08:38:35;404.50;;;50.07;;
5125;SDS011;63008;53.112;8.896;2022-10-31T08:40:36;145.30;;;33.27;;
5125;SDS011;63008;53.112;8.896;2022-10-31T08:42:38;67.53;;;31.40;;
5125;SDS011;63008;53.112;8.896;2022-10-31T08:44:39;75.97;;;30.00;;
5125;SDS011;63008;53.112;8.896;2022-10-31T08:46:40;136.40;;;31.13;;
5125;SDS011;63008;53.112;8.896;2022-10-31T08:48:41;91.90;;;32.50;;
5125;SDS011;63008;53.112;8.896;2022-10-31T08:50:42;121.10;;;33.83;;
5125;SDS011;63008;53.112;8.896;2022-10-31T08:52:44;68.93;;;28.87;;
5125;SDS011;63008;53.112;8.896;2022-10-31T08:54:45;43.13;;;27.97;;
5125;SDS011;63008;53.112;8.896;2022-10-31T08:56:46;40.93;;;26.67;;
5125;SDS011;63008;53.112;8.896;2022-10-31T08:58:47;43.93;;;27.93;;
5125;SDS011;63008;53.112;8.896;2022-10-31T09:00:49;94.67;;;32.97;;
5125;SDS011;63008;53.112;8.896;2022-10-31T09:02:55;223.73;;;30.27;;
5125;SDS011;63008;53.112;8.896;2022-10-31T09:05:00;96.50;;;30.33;;
5125;SDS011;63008;53.112;8.896;2022-10-31T09:07:01;90.43;;;29.80;;
5125;SDS011;63008;53.112;8.896;2022-10-31T09:09:02;40.73;;;29.60;;
5125;SDS011;63008;53.112;8.896;2022-10-31T09:11:03;119.13;;;32.80;;
5125;SDS011;63008;53.112;8.896;2022-10-31T09:13:05;30.97;;;26.70;;
5125;SDS011;63008;53.112;8.896;2022-10-31T09:15:14;54.93;;;27.93;;
5125;SDS011;63008;53.112;8.896;2022-10-31T09:17:15;54.93;;;29.73;;
5125;SDS011;63008;53.112;8.896;2022-10-31T09:19:16;157.80;;;33.13;;
5125;SDS011;63008;53.112;8.896;2022-10-31T09:21:17;143.60;;;36.30;;
5125;SDS011;63008;53.112;8.896;2022-10-31T09:23:19;37.40;;;27.60;;
5125;SDS011;63008;53.112;8.896;2022-10-31T09:25:21;58.17;;;29.33;;
5125;SDS011;63008;53.112;8.896;2022-10-31T09:27:22;64.27;;;30.43;;
5125;SDS011;63008;53.112;8.896;2022-10-31T09:29:23;38.80;;;29.00;;
5125;SDS011;63008;53.112;8.896;2022-10-31T09:31:24;40.40;;;29.90;;
5125;SDS011;63008;53.112;8.896;2022-10-31T09:33:25;45.40;;;29.80;;
5125;SDS011;63008;53.112;8.896;2022-10-31T09:35:26;59.27;;;30.60;;
5125;SDS011;63008;53.112;8.896;2022-10-31T09:37:28;51.07;;;29.63;;
5125;SDS011;63008;53.112;8.896;2022-10-31T09:39:29;57.97;;;31.20;;
5125;SDS011;63008;53.112;8.896;2022-10-31T09:43:43;131.13;;;36.50;;
5125;SDS011;63008;53.112;8.896;2022-10-31T09:45:56;71.97;;;34.57;;
5125;SDS011;63008;53.112;8.896;2022-10-31T09:48:11;126.47;;;35.50;;
5125;SDS011;63008;53.112;8.896;2022-10-31T09:50:46;93.47;;;34.63;;
5125;SDS011;63008;53.112;8.896;2022-10-31T09:57:18;48.27;;;29.80;;
5125;SDS011;63008;53.112;8.896;2022-10-31T09:59:29;131.00;;;32.57;;
5125;SDS011;63008;53.112;8.896;2022-10-31T10:03:49;50.23;;;30.73;;
5125;SDS011;63008;53.112;8.896;2022-10-31T10:06:04;100.07;;;31.90;;
5125;SDS011;63008;53.112;8.896;2022-10-31T10:08:09;49.17;;;28.30;;
5125;SDS011;63008;53.112;8.896;2022-10-31T10:10:29;39.00;;;29.23;;
5125;SDS011;63008;53.112;8.896;2022-10-31T10:15:35;99.53;;;27.70;;
5125;SDS011;63008;53.112;8.896;2022-10-31T10:17:46;50.73;;;27.10;;
5125;SDS011;63008;53.112;8.896;2022-10-31T10:22:21;57.67;;;28.20;;
5125;SDS011;63008;53.112;8.896;2022-10-31T10:27:16;50.23;;;29.83;;
5125;SDS011;63008;53.112;8.896;2022-10-31T10:29:31;41.93;;;28.70;;
5125;SDS011;63008;53.112;8.896;2022-10-31T10:31:40;47.83;;;31.27;;
5125;SDS011;63008;53.112;8.896;2022-10-31T10:36:00;47.03;;;29.53;;
5125;SDS011;63008;53.112;8.896;2022-10-31T10:38:20;43.30;;;28.40;;
5125;SDS011;63008;53.112;8.896;2022-10-31T10:40:30;78.90;;;30.27;;
5125;SDS011;63008;53.112;8.896;2022-10-31T10:42:30;46.57;;;32.20;;
5125;SDS011;63008;53.112;8.896;2022-10-31T10:44:50;47.07;;;33.10;;
5125;SDS011;63008;53.112;8.896;2022-10-31T10:47:10;50.80;;;32.87;;
5125;SDS011;63008;53.112;8.896;2022-10-31T10:49:36;49.13;;;32.00;;
5125;SDS011;63008;53.112;8.896;2022-10-31T10:51:54;49.70;;;33.37;;
5125;SDS011;63008;53.112;8.896;2022-10-31T10:56:20;45.83;;;31.30;;
5125;SDS011;63008;53.112;8.896;2022-10-31T10:58:33;46.00;;;30.57;;
5125;SDS011;63008;53.112;8.896;2022-10-31T11:02:42;47.93;;;32.20;;
5125;SDS011;63008;53.112;8.896;2022-10-31T11:04:44;38.83;;;29.23;;
5125;SDS011;63008;53.112;8.896;2022-10-31T11:06:59;36.37;;;28.30;;
5125;SDS011;63008;53.112;8.896;2022-10-31T11:09:08;35.07;;;26.70;;
5125;SDS011;63008;53.112;8.896;2022-10-31T11:13:31;34.30;;;26.00;;
5125;SDS011;63008;53.112;8.896;2022-10-31T11:15:36;32.40;;;25.37;;
5125;SDS011;63008;53.112;8.896;2022-10-31T11:17:51;33.20;;;25.40;;
5125;SDS011;63008;53.112;8.896;2022-10-31T11:20:03;36.27;;;24.43;;
5125;SDS011;63008;53.112;8.896;2022-10-31T11:22:06;31.53;;;24.90;;
5125;SDS011;63008;53.112;8.896;2022-10-31T11:26:21;36.73;;;25.03;;
5125;SDS011;63008;53.112;8.896;2022-10-31T11:28:22;34.83;;;25.97;;
5125;SDS011;63008;53.112;8.896;2022-10-31T11:30:23;34.53;;;25.47;;
5125;SDS011;63008;53.112;8.896;2022-10-31T11:32:24;36.47;;;26.93;;
5125;SDS011;63008;53.112;8.896;2022-10-31T11:34:31;36.47;;;27.53;;
5125;SDS011;63008;53.112;8.896;2022-10-31T11:36:35;34.43;;;27.30;;
5125;SDS011;63008;53.112;8.896;2022-10-31T11:38:40;37.30;;;28.67;;
5125;SDS011;63008;53.112;8.896;2022-10-31T11:40:51;38.83;;;27.83;;
5125;SDS011;63008;53.112;8.896;2022-10-31T11:42:55;37.60;;;28.37;;
5125;SDS011;63008;53.112;8.896;2022-10-31T11:44:58;36.50;;;28.20;;
5125;SDS011;63008;53.112;8.896;2022-10-31T11:47:01;35.13;;;26.57;;
5125;SDS011;63008;53.112;8.896;2022-10-31T11:49:04;36.50;;;27.93;;
5125;SDS011;63008;53.112;8.896;2022-10-31T11:51:11;33.57;;;26.90;;
5125;SDS011;63008;53.112;8.896;2022-10-31T11:53:15;40.20;;;28.00;;
5125;SDS011;63008;53.112;8.896;2022-10-31T11:55:30;46.27;;;28.30;;
5125;SDS011;63008;53.112;8.896;2022-10-31T11:59:50;34.30;;;25.30;;
5125;SDS011;63008;53.112;8.896;2022-10-31T12:01:53;34.90;;;24.97;;
5125;SDS011;63008;53.112;8.896;2022-10-31T12:04:09;32.07;;;24.77;;
5125;SDS011;63008;53.112;8.896;2022-10-31T12:08:21;33.13;;;26.70;;
5125;SDS011;63008;53.112;8.896;2022-10-31T12:10:24;34.03;;;26.60;;
5125;SDS011;63008;53.112;8.896;2022-10-31T12:13:08;38.47;;;27.73;;
5125;SDS011;63008;53.112;8.896;2022-10-31T12:15:22;38.90;;;28.93;;
5125;SDS011;63008;53.112;8.896;2022-10-31T12:20:06;40.53;;;31.23;;
5125;SDS011;63008;53.112;8.896;2022-10-31T12:22:23;43.00;;;31.00;;
5125;SDS011;63008;53.112;8.896;2022-10-31T12:24:57;38.40;;;28.67;;
5125;SDS011;63008;53.112;8.896;2022-10-31T12:27:09;41.03;;;30.43;;
5125;SDS011;63008;53.112;8.896;2022-10-31T12:34:00;42.13;;;31.23;;
5125;SDS011;63008;53.112;8.896;2022-10-31T12:43:31;52.10;;;33.00;;
5125;SDS011;63008;53.112;8.896;2022-10-31T12:45:45;55.43;;;34.10;;
5125;SDS011;63008;53.112;8.896;2022-10-31T12:58:01;46.73;;;30.63;;
5125;SDS011;63008;53.112;8.896;2022-10-31T13:00:12;50.53;;;31.50;;
5125;SDS011;63008;53.112;8.896;2022-10-31T13:02:24;45.60;;;32.40;;
5125;SDS011;63008;53.112;8.896;2022-10-31T13:04:35;44.83;;;32.03;;
5125;SDS011;63008;53.112;8.896;2022-10-31T13:06:49;47.80;;;31.87;;
5125;SDS011;63008;53.112;8.896;2022-10-31T13:08:55;45.30;;;30.30;;
5125;SDS011;63008;53.112;8.896;2022-10-31T13:11:10;48.47;;;30.43;;
5125;SDS011;63008;53.112;8.896;2022-10-31T13:13:24;40.43;;;29.33;;
5125;SDS011;63008;53.112;8.896;2022-10-31T13:15:47;43.63;;;30.07;;
5125;SDS011;63008;53.112;8.896;2022-10-31T13:17:53;41.40;;;28.80;;
5125;SDS011;63008;53.112;8.896;2022-10-31T13:20:11;40.50;;;29.80;;
5125;SDS011;63008;53.112;8.896;2022-10-31T13:22:17;42.00;;;28.57;;
5125;SDS011;63008;53.112;8.896;2022-10-31T13:24:23;44.57;;;28.97;;
5125;SDS011;63008;53.112;8.896;2022-10-31T13:26:34;46.63;;;30.50;;
5125;SDS011;63008;53.112;8.896;2022-10-31T13:28:40;40.17;;;26.77;;
5125;SDS011;63008;53.112;8.896;2022-10-31T13:30:47;54.50;;;30.20;;
5125;SDS011;63008;53.112;8.896;2022-10-31T13:33:00;44.20;;;28.73;;
5125;SDS011;63008;53.112;8.896;2022-10-31T13:35:07;42.00;;;27.90;;
5125;SDS011;63008;53.112;8.896;2022-10-31T13:37:30;44.50;;;29.67;;